Time;durP1;ratioP1;P1;durP2;ratioP2;P2;SDS_P1;SDS_P2;PMS_P1;PMS_P2;Temp;Humidity;BMP_temperature;BMP_pressure;BME280_temperature;BME280_humidity;BME280_pressure;Samples;Min_cycle;Max_cycle;Signal;HPM_P1;HPM_P2
2021/10/31 00:01:00;;;;;;;39.88;26.19;;;;;;;5.49;60.71;102521.52;470279;111;930504;-75
2021/10/31 00:02:05;;;;;;;37.04;25.05;;;;;;;5.49;60.69;102514.27;460331;114;922853;-75
2021/10/31 00:03:09;;;;;;;35.87;25.32;;;;;;;5.50;60.65;102515.98;455334;114;930624;-75
2021/10/31 00:04:12;;;;;;;32.41;24.51;;;;;;;5.50;60.56;102509.71;461942;112;930579;-75
2021/10/31 00:05:16;;;;;;;39.58;26.36;;;;;;;5.50;60.55;102513.28;462306;113;922636;-74
2021/10/31 00:06:21;;;;;;;39.87;25.72;;;;;;;5.48;60.56;102509.84;462107;113;923118;-74
2021/10/31 00:07:25;;;;;;;41.26;26.64;;;;;;;5.48;60.60;102515.25;460280;112;922625;-75
2021/10/31 00:08:28;;;;;;;40.11;25.84;;;;;;;5.45;60.61;102508.28;459854;112;930635;-75
2021/10/31 00:09:32;;;;;;;37.78;26.06;;;;;;;5.47;60.59;102510.83;461221;114;922664;-73
2021/10/31 00:10:36;;;;;;;41.53;25.82;;;;;;;5.45;60.53;102515.53;458126;114;930544;-73
2021/10/31 00:11:39;;;;;;;38.03;25.44;;;;;;;5.45;60.58;102515.53;460720;112;930536;-73
2021/10/31 00:12:43;;;;;;;33.68;24.14;;;;;;;5.44;60.48;102511.97;460058;112;922609;-73
2021/10/31 00:13:47;;;;;;;36.82;25.50;;;;;;;5.44;60.47;102511.11;461150;112;930579;-75
2021/10/31 00:14:51;;;;;;;38.69;26.17;;;;;;;5.43;60.40;102515.66;459228;114;922616;-75
2021/10/31 00:15:54;;;;;;;42.82;26.16;;;;;;;5.42;60.39;102515.78;460963;112;922671;-73
2021/10/31 00:16:59;;;;;;;38.63;26.74;;;;;;;5.42;60.31;102510.38;460306;112;922556;-74
2021/10/31 00:18:02;;;;;;;41.07;25.75;;;;;;;5.41;60.32;102514.06;460272;112;931091;-74
2021/10/31 00:19:05;;;;;;;41.84;26.51;;;;;;;5.40;60.35;102513.20;460678;112;922639;-76
2021/10/31 00:20:10;;;;;;;39.33;26.61;;;;;;;5.38;60.35;102512.50;460470;113;922703;-74
2021/10/31 00:21:13;;;;;;;49.51;28.26;;;;;;;5.37;60.34;102518.03;460100;112;922993;-73
2021/10/31 00:22:17;;;;;;;44.51;28.83;;;;;;;5.36;60.34;102514.47;461555;112;922881;-75
2021/10/31 00:23:20;;;;;;;56.22;32.16;;;;;;;5.36;60.29;102510.91;461439;114;923174;-73
2021/10/31 00:24:24;;;;;;;68.78;37.12;;;;;;;5.36;60.28;102513.61;460908;112;930544;-74
2021/10/31 00:25:28;;;;;;;72.41;38.82;;;;;;;5.35;60.18;102514.59;461197;113;922614;-75
2021/10/31 00:26:31;;;;;;;78.31;38.72;;;;;;;5.34;60.11;102519.18;462418;113;922614;-74
2021/10/31 00:27:35;;;;;;;76.02;38.71;;;;;;;5.33;60.05;102517.45;462605;112;922913;-75
2021/10/31 00:28:38;;;;;;;77.40;39.24;;;;;;;5.31;60.04;102505.91;461617;112;922880;-74
2021/10/31 00:29:42;;;;;;;68.54;37.26;;;;;;;5.31;60.01;102510.45;461124;114;930597;-75
2021/10/31 00:30:45;;;;;;;71.05;38.53;;;;;;;5.29;60.01;102510.58;451521;115;922592;-77
2021/10/31 00:31:49;;;;;;;71.38;37.21;;;;;;;5.28;59.99;102514.30;457921;113;922553;-74
2021/10/31 00:32:52;;;;;;;71.76;38.01;;;;;;;5.27;59.97;102515.28;460491;113;922898;-75
2021/10/31 00:33:56;;;;;;;67.03;36.03;;;;;;;5.25;59.99;102516.39;459330;112;922624;-75
2021/10/31 00:35:00;;;;;;;70.35;36.33;;;;;;;5.24;60.03;102511.97;460277;113;930383;-73
2021/10/31 00:36:04;;;;;;;67.22;36.05;;;;;;;5.23;59.99;102513.84;459994;112;930297;-75
2021/10/31 00:37:07;;;;;;;65.94;35.41;;;;;;;5.21;60.03;102513.11;460044;112;923066;-74
2021/10/31 00:38:11;;;;;;;61.02;34.84;;;;;;;5.20;60.03;102514.09;460802;113;922612;-75
2021/10/31 00:39:14;;;;;;;67.28;36.33;;;;;;;5.18;60.06;102505.27;460315;112;922887;-75
2021/10/31 00:40:20;;;;;;;60.48;35.19;;;;;;;5.18;60.06;102510.69;459582;112;922784;-75
2021/10/31 00:41:23;;;;;;;66.22;35.47;;;;;;;5.15;60.08;102524.45;459775;113;930584;-76
2021/10/31 00:42:27;;;;;;;59.79;34.56;;;;;;;5.15;60.13;102520.89;459542;112;922606;-74
2021/10/31 00:43:31;;;;;;;57.58;34.39;;;;;;;5.13;60.15;102507.49;460919;114;923153;-74
2021/10/31 00:44:35;;;;;;;62.25;35.43;;;;;;;5.12;60.13;102523.87;459831;112;930510;-75
2021/10/31 00:45:39;;;;;;;67.03;36.51;;;;;;;5.11;60.13;102520.30;460079;112;922790;-75
2021/10/31 00:46:42;;;;;;;65.59;35.82;;;;;;;5.11;60.14;102524.85;460458;112;930408;-75
2021/10/31 00:47:46;;;;;;;64.41;32.78;;;;;;;5.09;60.11;102522.27;460892;112;930414;-74
2021/10/31 00:48:49;;;;;;;56.18;31.80;;;;;;;5.10;60.14;102518.59;461050;111;923003;-74
2021/10/31 00:49:52;;;;;;;53.89;32.21;;;;;;;5.08;60.17;102516.98;461283;112;930550;-75
2021/10/31 00:50:56;;;;;;;55.39;32.24;;;;;;;5.07;60.09;102516.16;461394;114;922649;-76
2021/10/31 00:52:01;;;;;;;52.42;31.20;;;;;;;5.08;60.06;102514.28;462704;114;922423;-74
2021/10/31 00:53:06;;;;;;;51.59;30.56;;;;;;;5.07;60.06;102512.59;462649;112;922706;-73
2021/10/31 00:54:09;;;;;;;50.93;30.88;;;;;;;5.04;59.98;102511.86;461588;112;922540;-74
2021/10/31 00:55:15;;;;;;;48.62;28.92;;;;;;;5.03;59.97;102515.55;463479;112;922589;-73
2021/10/31 00:56:19;;;;;;;44.09;28.29;;;;;;;5.01;60.03;102506.73;461966;113;922545;-74
2021/10/31 00:57:22;;;;;;;45.70;28.51;;;;;;;4.99;60.05;102513.24;460234;112;923137;-74
2021/10/31 00:58:26;;;;;;;46.21;28.56;;;;;;;4.98;60.09;102511.52;459027;112;930521;-75
2021/10/31 00:59:29;;;;;;;47.89;29.41;;;;;;;4.96;60.10;102511.64;458854;112;922831;-75
2021/10/31 01:00:33;;;;;;;51.86;30.01;;;;;;;4.95;60.13;102514.50;451602;115;922531;-74
2021/10/31 01:01:37;;;;;;;54.52;31.34;;;;;;;4.92;60.12;102506.64;452885;113;922583;-75
2021/10/31 01:02:41;;;;;;;55.14;33.50;;;;;;;4.89;60.12;102512.31;452022;115;923026;-75
2021/10/31 01:03:45;;;;;;;58.39;33.61;;;;;;;4.84;60.07;102506.45;452820;115;922807;-74
2021/10/31 01:04:53;;;;;;;61.15;33.67;;;;;;;4.77;60.04;102502.55;452593;115;930614;-74
2021/10/31 01:06:09;;;;;;;55.26;32.99;;;;;;;4.70;60.10;102504.05;453842;113;922897;-74
2021/10/31 01:07:25;;;;;;;57.35;32.90;;;;;;;4.64;60.24;102508.13;450412;115;922626;-73
2021/10/31 01:08:47;;;;;;;54.27;32.67;;;;;;;4.61;60.44;102511.09;452836;115;922553;-74
2021/10/31 01:10:14;;;;;;;56.72;32.33;;;;;;;4.59;60.60;102508.52;453284;114;923258;-72
2021/10/31 01:11:51;;;;;;;47.76;30.20;;;;;;;4.59;60.67;102505.81;453246;113;922671;-74
2021/10/31 01:13:10;;;;;;;50.08;29.69;;;;;;;4.58;60.79;102501.39;452823;113;922518;-73
2021/10/31 01:14:34;;;;;;;55.29;32.44;;;;;;;4.58;60.91;102498.69;453167;114;922663;-74
2021/10/31 01:15:50;;;;;;;54.52;30.97;;;;;;;4.59;60.94;102495.01;454765;115;922742;-74
2021/10/31 01:17:06;;;;;;;44.00;29.39;;;;;;;4.60;60.94;102502.13;456006;115;922658;-74
2021/10/31 01:18:29;;;;;;;42.47;29.00;;;;;;;4.61;60.94;102497.59;441044;117;922729;-73
2021/10/31 01:19:36;;;;;;;50.64;28.73;;;;;;;4.63;60.96;102502.88;438411;118;923159;-75
2021/10/31 01:20:49;;;;;;;52.92;28.49;;;;;;;4.63;60.95;102504.56;439298;119;923260;-75
2021/10/31 01:22:08;;;;;;;44.69;29.05;;;;;;;4.64;60.82;102500.02;439607;117;922700;-73
2021/10/31 01:23:15;;;;;;;43.51;27.76;;;;;;;4.65;60.79;102503.58;440806;117;922737;-75
2021/10/31 01:24:28;;;;;;;53.19;30.23;;;;;;;4.64;60.68;102497.31;439037;119;923159;-74
2021/10/31 01:25:58;;;;;;;54.88;30.36;;;;;;;4.63;60.56;102492.92;439448;118;922547;-75
2021/10/31 01:27:19;;;;;;;54.31;30.32;;;;;;;4.60;60.41;102499.43;440014;117;923076;-74
2021/10/31 01:28:32;;;;;;;51.73;29.46;;;;;;;4.53;60.37;102503.63;439557;117;922543;-74
2021/10/31 01:29:59;;;;;;;54.71;30.69;;;;;;;4.46;60.54;102499.74;439940;119;922899;-73
2021/10/31 01:31:15;;;;;;;56.24;31.36;;;;;;;4.43;60.68;102496.42;440130;117;923129;-75
2021/10/31 01:32:47;;;;;;;60.33;34.01;;;;;;;4.53;60.90;102495.52;482376;107;933471;-76
2021/10/31 01:34:00;;;;;;;65.00;33.31;;;;;;;4.42;60.95;102490.16;470092;109;922642;-74
2021/10/31 01:35:07;;;;;;;63.69;34.16;;;;;;;4.44;60.97;102488.20;470691;109;922612;-73
2021/10/31 01:36:32;;;;;;;53.54;32.57;;;;;;;4.45;60.99;102495.32;471093;109;922740;-74
2021/10/31 01:38:04;;;;;;;47.52;31.29;;;;;;;4.45;60.97;102500.72;471368;109;922613;-74
2021/10/31 01:39:26;;;;;;;54.18;32.67;;;;;;;4.45;61.02;102495.32;456894;114;922440;-75
2021/10/31 01:40:33;;;;;;;51.19;31.87;;;;;;;4.44;60.94;102499.00;456462;114;922395;-73
2021/10/31 01:42:02;;;;;;;55.09;32.83;;;;;;;4.40;60.85;102481.34;460115;110;922973;-74
2021/10/31 01:43:29;;;;;;;51.11;30.82;;;;;;;4.36;60.80;102492.51;472110;110;922546;-74
2021/10/31 01:45:03;;;;;;;50.22;31.39;;;;;;;4.29;60.87;102494.89;471599;109;922862;-74
2021/10/31 01:46:37;;;;;;;46.18;31.71;;;;;;;4.23;61.00;102499.94;471693;110;922581;-74
2021/10/31 01:48:06;;;;;;;49.66;29.93;;;;;;;4.17;61.15;102498.59;472029;110;922664;-74
2021/10/31 01:49:28;;;;;;;42.61;28.42;;;;;;;4.14;61.37;102488.03;471385;109;922688;-75
2021/10/31 01:50:40;;;;;;;50.12;30.23;;;;;;;4.15;61.55;102497.85;471924;110;922947;-75
2021/10/31 01:51:49;;;;;;;46.13;30.68;;;;;;;4.14;61.47;102493.44;471791;110;922937;-74
2021/10/31 01:53:06;;;;;;;48.59;30.78;;;;;;;4.12;61.35;102498.98;471941;109;922679;-74
2021/10/31 01:54:13;;;;;;;52.80;29.51;;;;;;;4.08;61.39;102493.97;471153;109;922577;-74
2021/10/31 01:55:23;;;;;;;48.29;30.09;;;;;;;4.05;61.40;102494.20;471619;109;922954;-74
2021/10/31 01:56:30;;;;;;;46.85;29.35;;;;;;;4.02;61.44;102497.17;471684;110;922637;-75
2021/10/31 01:57:37;;;;;;;51.09;29.47;;;;;;;4.00;61.46;102491.89;471593;109;923021;-74
2021/10/31 01:58:44;;;;;;;40.23;29.08;;;;;;;3.98;61.40;102495.67;471290;110;922652;-75
2021/10/31 01:59:52;;;;;;;52.28;29.87;;;;;;;3.94;61.41;102495.08;471119;110;922881;-74
2021/10/31 02:01:00;;;;;;;48.64;29.32;;;;;;;3.91;61.41;102502.58;470558;110;922566;-74
2021/10/31 02:02:06;;;;;;;45.81;29.61;;;;;;;3.87;61.47;102498.39;470015;109;930393;-75
2021/10/31 02:03:12;;;;;;;48.02;30.01;;;;;;;3.84;61.49;102493.26;471986;110;922679;-75
2021/10/31 02:04:19;;;;;;;47.71;30.16;;;;;;;3.81;61.55;102497.05;472364;110;922513;-75
2021/10/31 02:05:25;;;;;;;43.73;28.20;;;;;;;3.77;61.58;102495.59;463901;112;922765;-75
2021/10/31 02:06:31;;;;;;;47.78;29.82;;;;;;;3.73;61.67;102497.69;463914;110;922890;-74
2021/10/31 02:07:40;;;;;;;44.53;29.13;;;;;;;3.73;61.85;102499.52;472299;110;923103;-75
2021/10/31 02:08:46;;;;;;;49.21;30.54;;;;;;;3.74;62.02;102495.85;472038;110;922754;-75
2021/10/31 02:09:51;;;;;;;48.82;30.11;;;;;;;3.76;62.16;102500.13;473091;109;922667;-75
2021/10/31 02:10:57;;;;;;;61.81;32.51;;;;;;;3.84;62.25;102501.35;472564;110;922893;-74
2021/10/31 02:12:04;;;;;;;64.22;33.18;;;;;;;3.87;62.24;102503.78;472156;109;923810;-75
2021/10/31 02:13:10;;;;;;;50.63;31.57;;;;;;;3.91;62.18;102495.34;472045;110;922503;-75
2021/10/31 02:14:15;;;;;;;59.42;34.12;;;;;;;3.97;62.16;102502.09;471234;109;922704;-73
2021/10/31 02:15:20;;;;;;;62.45;35.79;;;;;;;4.01;61.99;102504.41;471721;109;922548;-74
2021/10/31 02:16:25;;;;;;;73.02;40.16;;;;;;;4.05;61.95;102499.59;471566;110;922617;-73
2021/10/31 02:17:31;;;;;;;81.56;43.65;;;;;;;4.10;61.80;102502.77;472224;109;922848;-75
2021/10/31 02:18:36;;;;;;;82.60;45.61;;;;;;;4.13;61.76;102503.41;472526;109;922750;-75
2021/10/31 02:19:42;;;;;;;87.78;47.31;;;;;;;4.17;61.65;102499.45;471291;109;923065;-77
2021/10/31 02:20:47;;;;;;;97.10;49.62;;;;;;;4.21;61.51;102500.05;471712;109;930643;-74
2021/10/31 02:21:54;;;;;;;93.55;49.51;;;;;;;4.24;61.40;102496.25;471278;109;922598;-75
2021/10/31 02:23:00;;;;;;;88.36;47.47;;;;;;;4.25;61.31;102490.70;471145;110;923174;-75
2021/10/31 02:24:06;;;;;;;91.89;48.68;;;;;;;4.27;61.27;102501.38;471482;109;922619;-74
2021/10/31 02:25:10;;;;;;;85.45;47.14;;;;;;;4.28;61.27;102498.56;471467;110;922729;-76
2021/10/31 02:26:15;;;;;;;86.36;47.37;;;;;;;4.30;61.21;102501.15;470351;110;922754;-74
2021/10/31 02:27:21;;;;;;;87.04;48.16;;;;;;;4.31;61.13;102495.59;472003;109;922723;-75
2021/10/31 02:28:26;;;;;;;90.91;48.91;;;;;;;4.33;61.10;102492.78;472229;109;922908;-75
2021/10/31 02:29:29;;;;;;;91.07;48.79;;;;;;;4.34;61.06;102495.36;472568;110;922867;-74
2021/10/31 02:30:33;;;;;;;88.02;48.51;;;;;;;4.36;61.02;102492.51;472471;109;923003;-74
2021/10/31 02:31:37;;;;;;;90.91;48.34;;;;;;;4.36;60.98;102493.37;471824;109;922932;-74
2021/10/31 02:32:41;;;;;;;85.65;45.67;;;;;;;4.37;60.95;102495.09;473605;110;922643;-75
2021/10/31 02:33:45;;;;;;;81.72;46.29;;;;;;;4.38;60.95;102494.11;473394;110;930853;-75
2021/10/31 02:34:52;;;;;;;77.51;43.54;;;;;;;4.40;60.96;102488.59;472079;109;922916;-74
2021/10/31 02:35:58;;;;;;;75.90;42.74;;;;;;;4.40;60.92;102497.55;472512;110;922601;-74
2021/10/31 02:37:01;;;;;;;76.61;42.48;;;;;;;4.41;60.88;102487.61;472128;110;922521;-75
2021/10/31 02:38:05;;;;;;;79.76;44.56;;;;;;;4.40;60.89;102494.85;473372;110;922862;-75
2021/10/31 02:39:09;;;;;;;79.44;43.83;;;;;;;4.40;60.87;102492.16;471987;109;930339;-76
2021/10/31 02:40:17;;;;;;;82.42;44.07;;;;;;;4.40;60.87;102489.45;472900;110;922615;-74
2021/10/31 02:41:21;;;;;;;81.43;46.14;;;;;;;4.41;60.89;102490.31;472632;110;922742;-74
2021/10/31 02:42:24;;;;;;;74.48;41.92;;;;;;;4.41;60.87;102488.44;472776;110;922831;-74
2021/10/31 02:43:27;;;;;;;78.87;43.11;;;;;;;4.42;60.79;102498.27;472386;109;930556;-75
2021/10/31 02:44:31;;;;;;;77.68;42.14;;;;;;;4.39;60.71;102492.27;472436;110;930139;-75
2021/10/31 02:45:35;;;;;;;66.15;40.44;;;;;;;4.37;60.73;102484.28;471986;110;922473;-75
2021/10/31 02:46:39;;;;;;;81.47;40.49;;;;;;;4.36;60.73;102489.81;472246;110;922623;-75
2021/10/31 02:47:46;;;;;;;74.71;40.94;;;;;;;4.35;60.74;102488.98;463805;111;930599;-75
2021/10/31 02:48:50;;;;;;;72.66;40.01;;;;;;;4.34;60.79;102484.56;463613;110;922696;-75
2021/10/31 02:49:56;;;;;;;65.61;38.38;;;;;;;4.32;60.82;102486.52;472362;110;922664;-75
2021/10/31 02:51:08;;;;;;;70.10;39.33;;;;;;;4.33;60.86;102490.08;470794;110;922642;-75
2021/10/31 02:52:33;;;;;;;67.97;38.06;;;;;;;4.32;60.91;102485.66;472390;109;922731;-73
2021/10/31 02:53:39;;;;;;;64.39;37.89;;;;;;;4.32;60.93;102493.76;472326;110;922513;-75
2021/10/31 02:54:52;;;;;;;67.49;39.74;;;;;;;4.31;60.98;102484.80;473041;110;922989;-75
2021/10/31 02:56:15;;;;;;;60.62;34.59;;;;;;;4.30;60.97;102488.48;471244;109;922579;-73
2021/10/31 02:57:28;;;;;;;57.94;36.36;;;;;;;4.30;60.96;102485.77;472173;110;922719;-75
2021/10/31 02:58:44;;;;;;;60.39;35.36;;;;;;;4.30;60.92;102483.08;472040;110;923067;-75
2021/10/31 02:59:54;;;;;;;57.44;35.09;;;;;;;4.29;60.87;102484.09;472416;109;922704;-75
2021/10/31 03:01:00;;;;;;;53.72;32.67;;;;;;;4.28;60.82;102482.37;472212;109;923150;-75
2021/10/31 03:02:07;;;;;;;49.27;30.63;;;;;;;4.27;60.90;102483.34;472008;110;922549;-73
2021/10/31 03:03:12;;;;;;;49.01;30.93;;;;;;;4.27;60.90;102477.95;471695;110;922580;-74
2021/10/31 03:04:20;;;;;;;44.52;28.96;;;;;;;4.25;60.93;102482.60;471981;109;922876;-74
2021/10/31 03:05:24;;;;;;;38.80;27.91;;;;;;;4.25;60.91;102477.20;472062;110;922997;-74
2021/10/31 03:06:28;;;;;;;41.89;29.18;;;;;;;4.26;60.94;102480.77;471921;110;922570;-75
2021/10/31 03:07:32;;;;;;;36.89;27.82;;;;;;;4.26;60.91;102478.92;471747;110;930389;-74
2021/10/31 03:08:35;;;;;;;49.71;30.67;;;;;;;4.26;60.92;102478.92;471674;109;922947;-74
2021/10/31 03:09:39;;;;;;;42.06;29.30;;;;;;;4.27;60.90;102477.95;471268;109;922544;-74
2021/10/31 03:10:50;;;;;;;46.09;31.31;;;;;;;4.27;60.85;102477.09;471005;110;922611;-73
2021/10/31 03:12:05;;;;;;;47.49;31.29;;;;;;;4.27;60.73;102468.98;471307;109;930332;-75
2021/10/31 03:13:09;;;;;;;47.87;32.56;;;;;;;4.27;60.75;102477.95;472658;109;922638;-79
2021/10/31 03:14:13;;;;;;;52.53;34.36;;;;;;;4.26;60.73;102476.22;472739;110;923225;-76
2021/10/31 03:15:18;;;;;;;54.74;33.89;;;;;;;4.26;60.66;102470.83;472237;110;923086;-74
2021/10/31 03:16:23;;;;;;;51.72;36.18;;;;;;;4.25;60.63;102474.50;472420;110;923124;-73
2021/10/31 03:17:27;;;;;;;54.18;35.84;;;;;;;4.25;60.60;102469.11;472337;109;922528;-75
2021/10/31 03:18:31;;;;;;;53.46;34.69;;;;;;;4.25;60.57;102469.11;472360;110;922549;-74
2021/10/31 03:19:38;;;;;;;48.13;33.32;;;;;;;4.25;60.52;102466.41;472995;110;922727;-74
2021/10/31 03:20:42;;;;;;;43.97;29.72;;;;;;;4.25;60.47;102470.94;471730;110;922586;-74
2021/10/31 03:21:46;;;;;;;40.96;29.94;;;;;;;4.26;60.45;102469.96;472794;110;922664;-74
2021/10/31 03:22:49;;;;;;;40.49;28.44;;;;;;;4.25;60.39;102474.50;472631;109;922465;-75
2021/10/31 03:23:53;;;;;;;38.96;28.66;;;;;;;4.25;60.29;102469.11;472116;110;930621;-75
2021/10/31 03:24:56;;;;;;;37.30;27.51;;;;;;;4.24;60.24;102466.55;472043;109;930615;-76
2021/10/31 03:26:00;;;;;;;36.96;27.53;;;;;;;4.24;60.13;102469.25;472143;110;930621;-74
2021/10/31 03:27:04;;;;;;;35.63;27.44;;;;;;;4.23;60.11;102464.84;472387;110;930558;-74
2021/10/31 03:28:07;;;;;;;34.68;26.29;;;;;;;4.22;60.08;102472.07;472082;110;922906;-74
2021/10/31 03:29:11;;;;;;;47.30;27.14;;;;;;;4.22;60.05;102471.21;471136;109;922648;-74
2021/10/31 03:30:16;;;;;;;41.27;28.04;;;;;;;4.21;60.02;102464.95;472389;110;922631;-73
2021/10/31 03:31:19;;;;;;;36.66;26.92;;;;;;;4.20;59.98;102468.63;472272;110;922592;-74
2021/10/31 03:32:23;;;;;;;35.38;27.02;;;;;;;4.19;59.83;102466.91;471854;110;922603;-73
2021/10/31 03:33:26;;;;;;;37.31;28.80;;;;;;;4.16;59.80;102469.88;471077;109;923291;-75
2021/10/31 03:34:30;;;;;;;36.39;26.94;;;;;;;4.14;59.78;102470.00;472023;110;923060;-76
2021/10/31 03:35:34;;;;;;;40.49;26.21;;;;;;;4.12;59.63;102466.59;471405;109;922482;-75
2021/10/31 03:36:37;;;;;;;43.17;27.52;;;;;;;4.11;59.51;102466.70;470940;110;922647;-75
2021/10/31 03:37:42;;;;;;;37.39;26.98;;;;;;;4.07;59.46;102467.95;463259;111;923334;-75
2021/10/31 03:38:46;;;;;;;40.01;27.22;;;;;;;4.05;59.52;102467.20;463485;110;930885;-74
2021/10/31 03:39:49;;;;;;;36.53;26.37;;;;;;;4.03;59.48;102466.47;472382;110;923047;-75
2021/10/31 03:40:54;;;;;;;40.84;27.14;;;;;;;4.03;59.44;102475.42;472273;110;930475;-74
2021/10/31 03:41:57;;;;;;;32.26;25.75;;;;;;;4.02;59.43;102468.34;471527;109;922540;-76
2021/10/31 03:43:01;;;;;;;36.42;26.27;;;;;;;3.99;59.39;102460.47;471601;110;930782;-74
2021/10/31 03:44:05;;;;;;;38.03;26.35;;;;;;;3.98;59.41;102456.05;472696;110;930335;-75
2021/10/31 03:45:10;;;;;;;37.44;26.72;;;;;;;3.98;59.42;102461.45;471646;109;930468;-75
2021/10/31 03:46:15;;;;;;;35.61;25.76;;;;;;;3.97;59.35;102464.30;471607;109;922737;-76
2021/10/31 03:47:21;;;;;;;41.71;25.96;;;;;;;3.94;59.33;102460.00;471895;110;922671;-73
2021/10/31 03:48:25;;;;;;;32.75;24.86;;;;;;;3.91;59.36;102460.27;471635;110;922556;-74
2021/10/31 03:49:28;;;;;;;32.79;24.30;;;;;;;3.89;59.44;102450.56;472063;109;922944;-73
2021/10/31 03:50:32;;;;;;;30.19;23.72;;;;;;;3.88;59.45;102452.41;471316;110;922917;-74
2021/10/31 03:51:36;;;;;;;34.70;25.02;;;;;;;3.87;59.48;102457.92;471470;109;923023;-72
2021/10/31 03:52:41;;;;;;;37.16;26.09;;;;;;;3.85;59.55;102454.50;471516;110;922546;-74
2021/10/31 03:53:45;;;;;;;31.38;24.83;;;;;;;3.85;59.63;102459.91;471803;109;922681;-73
2021/10/31 03:54:48;;;;;;;39.33;24.45;;;;;;;3.85;59.68;102454.50;472095;109;922543;-75
2021/10/31 03:55:52;;;;;;;29.71;23.85;;;;;;;3.84;59.71;102459.05;471457;109;928033;-75
2021/10/31 03:56:55;;;;;;;37.65;25.44;;;;;;;3.85;59.76;102457.20;471100;110;922687;-75
2021/10/31 03:57:59;;;;;;;34.61;25.20;;;;;;;3.84;59.77;102456.34;470966;109;922846;-76
2021/10/31 03:59:03;;;;;;;28.27;23.33;;;;;;;3.84;59.76;102456.34;470941;109;930695;-75
2021/10/31 04:00:09;;;;;;;29.85;24.47;;;;;;;3.84;59.76;102448.25;470553;109;930241;-75
2021/10/31 04:01:13;;;;;;;31.11;25.78;;;;;;;3.83;59.75;102446.53;471293;110;922986;-74
2021/10/31 04:02:16;;;;;;;34.23;25.30;;;;;;;3.84;59.73;102444.69;471161;109;922663;-74
2021/10/31 04:03:20;;;;;;;32.69;24.91;;;;;;;3.85;59.72;102454.50;472044;109;930902;-74
2021/10/31 04:04:23;;;;;;;33.91;24.90;;;;;;;3.84;59.72;102447.39;471940;109;930455;-73
2021/10/31 04:05:27;;;;;;;35.46;24.35;;;;;;;3.85;59.67;102449.97;472210;110;922620;-74
2021/10/31 04:06:32;;;;;;;34.61;25.27;;;;;;;3.85;59.64;102446.41;471671;109;930553;-74
2021/10/31 04:07:35;;;;;;;35.64;25.85;;;;;;;3.83;59.56;102446.53;471960;109;922578;-74
2021/10/31 04:08:40;;;;;;;33.13;25.25;;;;;;;3.84;59.67;102447.39;472089;110;922669;-74
2021/10/31 04:09:44;;;;;;;40.21;24.70;;;;;;;3.83;59.63;102449.22;472391;110;930482;-75
2021/10/31 04:10:47;;;;;;;33.36;24.53;;;;;;;3.82;59.56;102444.80;471617;109;922979;-76
2021/10/31 04:11:51;;;;;;;35.05;26.12;;;;;;;3.83;59.57;102440.27;472165;110;923451;-74
2021/10/31 04:12:54;;;;;;;30.51;23.68;;;;;;;3.83;59.54;102445.67;471781;110;922844;-74
2021/10/31 04:13:58;;;;;;;35.19;25.96;;;;;;;3.82;59.48;102442.11;472186;109;930594;-74
2021/10/31 04:15:06;;;;;;;35.38;25.11;;;;;;;3.82;59.45;102436.71;471931;110;930981;-76
2021/10/31 04:16:09;;;;;;;30.98;25.17;;;;;;;3.82;59.41;102439.41;471174;109;930611;-73
2021/10/31 04:17:13;;;;;;;39.92;26.74;;;;;;;3.82;59.40;102439.41;472046;110;922516;-74
2021/10/31 04:18:16;;;;;;;30.94;24.74;;;;;;;3.83;59.38;102435.73;471783;110;930565;-74
2021/10/31 04:19:20;;;;;;;37.89;25.34;;;;;;;3.84;59.31;102436.59;471247;109;922673;-73
2021/10/31 04:20:24;;;;;;;35.03;25.60;;;;;;;3.83;59.22;102432.17;471511;109;924747;-74
2021/10/31 04:21:27;;;;;;;28.20;23.44;;;;;;;3.81;59.25;102440.39;471042;110;922923;-75
2021/10/31 04:22:31;;;;;;;36.01;24.41;;;;;;;3.81;59.22;102432.30;471771;110;930294;-73
2021/10/31 04:23:35;;;;;;;33.62;24.89;;;;;;;3.82;59.19;102431.31;470058;109;922922;-76
2021/10/31 04:24:38;;;;;;;27.41;23.32;;;;;;;3.81;59.20;102436.83;471426;110;922667;-74
2021/10/31 04:25:42;;;;;;;33.79;24.47;;;;;;;3.80;59.16;102436.00;473272;110;930495;-74
2021/10/31 04:26:45;;;;;;;30.27;25.01;;;;;;;3.77;59.08;102431.70;473310;110;922565;-74
2021/10/31 04:27:49;;;;;;;28.93;24.74;;;;;;;3.74;59.02;102434.66;471661;109;923256;-74
2021/10/31 04:28:52;;;;;;;37.37;24.56;;;;;;;3.70;59.02;102430.48;471342;110;922621;-74
2021/10/31 04:29:56;;;;;;;32.69;25.06;;;;;;;3.68;59.05;102431.60;472649;110;922579;-73
2021/10/31 04:30:59;;;;;;;28.72;24.83;;;;;;;3.64;59.16;102433.67;472003;110;923288;-74
2021/10/31 04:32:05;;;;;;;34.38;25.79;;;;;;;3.62;59.22;102430.27;471529;110;930442;-75
2021/10/31 04:33:08;;;;;;;33.35;26.18;;;;;;;3.63;59.27;102433.82;471755;110;930519;-74
2021/10/31 04:34:11;;;;;;;35.35;25.59;;;;;;;3.62;59.36;102432.09;471954;109;922944;-75
2021/10/31 04:35:15;;;;;;;40.89;28.36;;;;;;;3.63;59.44;102429.28;471663;110;930461;-76
2021/10/31 04:36:20;;;;;;;45.53;31.86;;;;;;;3.63;59.46;102429.28;471474;109;922682;-76
2021/10/31 04:37:24;;;;;;;60.10;42.10;;;;;;;3.65;59.45;102427.30;472223;110;922946;-74
2021/10/31 04:38:30;;;;;;;76.59;49.59;;;;;;;3.67;59.41;102436.13;471767;110;930277;-74
2021/10/31 04:39:33;;;;;;;81.94;56.54;;;;;;;3.68;59.40;102428.91;471559;110;930201;-74
2021/10/31 04:40:39;;;;;;;81.20;54.95;;;;;;;3.69;59.39;102439.55;471600;109;923077;-75
2021/10/31 04:41:45;;;;;;;76.16;52.94;;;;;;;3.70;59.41;102427.78;470980;109;922575;-74
2021/10/31 04:42:48;;;;;;;72.77;48.62;;;;;;;3.71;59.39;102431.34;471886;110;922934;-75
2021/10/31 04:43:51;;;;;;;78.44;49.20;;;;;;;3.72;59.38;102433.92;472067;110;922809;-74
2021/10/31 04:44:55;;;;;;;66.69;45.43;;;;;;;3.73;59.36;102430.25;472166;109;922693;-74
2021/10/31 04:45:58;;;;;;;68.74;46.79;;;;;;;3.75;59.30;102440.89;471347;109;922748;-73
2021/10/31 04:47:03;;;;;;;69.63;44.41;;;;;;;3.75;59.33;102432.80;470943;110;930516;-75
2021/10/31 04:48:07;;;;;;;70.44;41.30;;;;;;;3.76;59.30;102434.52;469906;109;930559;-74
2021/10/31 04:49:10;;;;;;;61.39;39.36;;;;;;;3.76;59.29;102429.12;470985;109;922532;-74
2021/10/31 04:50:15;;;;;;;70.09;37.36;;;;;;;3.76;59.28;102432.67;472106;110;922566;-74
2021/10/31 04:51:19;;;;;;;60.03;34.76;;;;;;;3.77;59.27;102428.14;472553;110;922791;-73
2021/10/31 04:52:23;;;;;;;57.35;34.38;;;;;;;3.77;59.30;102439.80;472399;109;930623;-74
2021/10/31 04:53:26;;;;;;;49.99;30.89;;;;;;;3.78;59.28;102437.95;471959;109;922596;-74
2021/10/31 04:54:31;;;;;;;49.74;29.62;;;;;;;3.80;59.24;102433.30;471536;109;922589;-76
2021/10/31 04:55:40;;;;;;;47.03;29.82;;;;;;;3.81;59.22;102431.44;472211;110;930366;-75
2021/10/31 04:56:43;;;;;;;50.23;29.62;;;;;;;3.82;59.20;102433.16;466365;111;923008;-73
2021/10/31 04:57:47;;;;;;;45.82;30.08;;;;;;;3.83;59.15;102435.73;464040;110;922658;-75
2021/10/31 04:58:51;;;;;;;60.67;32.36;;;;;;;3.84;59.22;102436.59;471276;110;922749;-74
2021/10/31 04:59:55;;;;;;;50.32;30.72;;;;;;;3.85;59.23;102441.02;471965;110;922581;-74
2021/10/31 05:00:58;;;;;;;55.74;32.92;;;;;;;3.86;59.25;102443.56;471548;109;930588;-75
2021/10/31 05:02:02;;;;;;;57.57;32.46;;;;;;;3.88;59.22;102443.45;471448;109;930590;-75
2021/10/31 05:03:07;;;;;;;50.59;29.89;;;;;;;3.88;59.19;102438.05;471959;110;922547;-75
2021/10/31 05:04:10;;;;;;;37.14;26.06;;;;;;;3.89;59.20;102443.33;472274;109;922854;-75